Radiance Of The Seas — C6SE7 — position and weather

sailwx.info

Track history (hours):
 
Tides and Currents Weather Stations Pressure Air Temp Water Temp Dewpoint Dewpoint Depression Visibility Wind Speed Wind Dir Waves Ship Positions

Radiance Of The Seas

Operator: Royal Caribbean Cruises Ltd

Last reported at 2018-Aug-16 09:00 UTC. Time now 2018-Aug-16 20:19 UTC.
Position N 58°12' W 137°36'.

Type: Passenger vessel. MMSI: 311319000.

Wind from 270 at 8 knots

Barometer 1021.0 mb
Air temperature 12.0 ° C
Visibility: greater than 5.4 NM
Water temperature 13.0 ° C

Date/timePositionNaut miles runAvg speedWind from/ knotsBaromVisibWave heightAir tempDewpointWater temp
2018-Aug-16 09:00N 58°12' W 137°36'4418.4 270 / 81021.0 5.4 12.0 13.0
2018-Aug-16 06:35N 58°19' W 136°13'221.6
2018-Aug-16 06:29N 58°19' W 136°09'1020.1
2018-Aug-16 06:00N 58°19' W 135°51'1120.9
2018-Aug-16 05:30N 58°15' W 135°32'35 1.9
2018-Aug-15 11:00N 58°48' W 135°06'42 3.0 180 / 101019.010.8 12.0 14.0
2018-Aug-14 21:00N 58°12' W 134°24'14 1.3 320 / 21015.010.8 14.5 11.4
2018-Aug-14 10:00N 58°18' W 134°48'17 2.5 150 / 201013.0 2.2 12.0 14.0
2018-Aug-14 03:00N 58°06' W 135°12'80 5.0 120 / 241014.0 5.4 13.0 12.0
2018-Aug-13 11:00N 56°48' W 134°36'161 6.6 180 / 151013.310.8 11.0 11.0
2018-Aug-12 10:35N 54°44' W 131°35'315.3
2018-Aug-12 10:22N 54°41' W 131°32'513.7
2018-Aug-12 10:00N 54°36' W 131°30'21067.1 320 / 201019.327.0 15.0 14.0
2018-Aug-12 09:59N 54°36' W 131°26'917.8
2018-Aug-12 09:30N 54°29' W 131°18'817.3
2018-Aug-12 09:00N 54°21' W 131°09'816.1
2018-Aug-12 08:30N 54°14' W 131°05'917.6
2018-Aug-12 08:00N 54°05' W 131°08'918.0
2018-Aug-12 07:30N 53°57' W 131°12'917.3
2018-Aug-12 07:00N 53°48' W 131°11'917.4
2018-Aug-12 06:30N 53°40' W 131°09'917.4
2018-Aug-12 06:00N 53°31' W 131°06'1117.5
2018-Aug-12 05:23N 53°21' W 131°00'717.6
2018-Aug-12 05:00N 53°15' W 130°56'9917.7
2018-Aug-11 23:24N 51°48' W 129°36'717.8
2018-Aug-11 23:00N 51°44' W 129°27'918.0
2018-Aug-11 22:30N 51°38' W 129°15'918.0
2018-Aug-11 22:00N 51°33' W 129°04'917.2
2018-Aug-11 21:30N 51°28' W 128°52'917.2
2018-Aug-11 21:00N 51°23' W 128°41'918.1
2018-Aug-11 20:30N 51°17' W 128°30'917.7
2018-Aug-11 20:00N 51°12' W 128°19'917.7
2018-Aug-11 19:30N 51°07' W 128°07'917.7
2018-Aug-11 19:00N 51°03' W 127°54'814.1
2018-Aug-11 18:27N 50°58' W 127°45'817.1
2018-Aug-11 18:00N 50°53' W 127°36'918.1
2018-Aug-11 17:30N 50°48' W 127°24'1018.6
2018-Aug-11 17:00N 50°41' W 127°14'817.0
2018-Aug-11 16:30N 50°37' W 127°03'713.0
2018-Aug-11 16:00N 50°34' W 126°53'5718.1
2018-Aug-11 12:51N 50°20' W 125°26'714.1
2018-Aug-11 12:22N 50°14' W 125°23'513.8
2018-Aug-11 12:00N 50°09' W 125°21'612.4
2018-Aug-11 11:30N 50°04' W 125°15'612.7
2018-Aug-11 11:00N 49°59' W 125°11'510.3
2018-Aug-11 10:30N 49°55' W 125°05'4 8.4
2018-Aug-11 10:00N 49°52' W 125°00'5 9.9
2018-Aug-11 09:30N 49°48' W 124°55'510.7
2018-Aug-11 09:00N 49°45' W 124°49'611.0
2018-Aug-11 08:29N 49°41' W 124°43'610.9
2018-Aug-11 07:58N 49°36' W 124°37'511.1
2018-Aug-11 07:30N 49°32' W 124°32'510.9
2018-Aug-11 07:00N 49°28' W 124°27'510.7
2018-Aug-11 06:30N 49°25' W 124°20'510.8
2018-Aug-11 06:00N 49°23' W 124°12'610.9
2018-Aug-11 05:30N 49°22' W 124°04'510.4
2018-Aug-11 05:00N 49°21' W 123°56'510.6
2018-Aug-11 04:30N 49°21' W 123°48'510.7
2018-Aug-11 04:00N 49°20' W 123°40'510.6
2018-Aug-11 03:30N 49°19' W 123°32'510.9
2018-Aug-11 03:00N 49°19' W 123°24'510.3
2018-Aug-11 02:30N 49°19' W 123°16'510.5
2018-Aug-11 02:00N 49°19' W 123°08'2 3.2
2018-Aug-11 01:30N 49°17' W 123°06'0 0.0
2018-Aug-11 01:00N 49°17' W 123°06'0 0.0
2018-Aug-11 00:30N 49°17' W 123°06'0 0.0
2018-Aug-11 00:00N 49°17' W 123°06'0 0.0
2018-Aug-10 23:30N 49°17' W 123°06'0 0.0
2018-Aug-10 23:00N 49°17' W 123°06'0 0.0
2018-Aug-10 22:30N 49°17' W 123°06'0 0.0
2018-Aug-10 22:00N 49°17' W 123°06'0 0.0
2018-Aug-10 21:30N 49°17' W 123°06'0 0.0
2018-Aug-10 21:00N 49°17' W 123°06'0 0.0
2018-Aug-10 20:30N 49°17' W 123°06'0 0.0
2018-Aug-10 20:00N 49°17' W 123°06'0 0.0
2018-Aug-10 19:30N 49°17' W 123°06'0 0.0
2018-Aug-10 19:00N 49°17' W 123°06'0 0.0
2018-Aug-10 18:30N 49°17' W 123°06'0 0.0
2018-Aug-10 18:00N 49°17' W 123°06'0 0.0
2018-Aug-10 17:30N 49°17' W 123°06'0 0.0
2018-Aug-10 17:00N 49°17' W 123°06'0 0.0
2018-Aug-10 16:30N 49°17' W 123°06'0 0.0
2018-Aug-10 16:00N 49°17' W 123°06'0 0.0
2018-Aug-10 15:30N 49°17' W 123°06'0 0.0
2018-Aug-10 15:00N 49°17' W 123°06'0 0.0
2018-Aug-10 14:30N 49°17' W 123°06'0 0.0
2018-Aug-10 14:00N 49°17' W 123°06'1 2.0
2018-Aug-10 13:30N 49°18' W 123°07'5 9.7
2018-Aug-10 13:01N 49°19' W 123°14'815.2
2018-Aug-10 12:31N 49°19' W 123°26'714.8
2018-Aug-10 12:00N 49°19' W 123°38'715.1
2018-Aug-10 11:31N 49°20' W 123°49'814.9
2018-Aug-10 11:00N 49°22' W 124°00'815.2
2018-Aug-10 10:30N 49°24' W 124°12'815.0
2018-Aug-10 09:59N 49°26' W 124°23'815.4
2018-Aug-10 09:30N 49°31' W 124°32'715.3
2018-Aug-10 09:00N 49°37' W 124°39'815.5
2018-Aug-10 08:30N 49°42' W 124°47'815.8
2018-Aug-10 08:00N 49°48' W 124°55'815.6
2018-Aug-10 07:30N 49°54' W 125°04'815.2
2018-Aug-10 07:00N 49°59' W 125°12'714.2
2018-Aug-10 06:30N 50°06' W 125°17'612.2
2018-Aug-10 06:00N 50°11' W 125°22'5713.6
2018-Aug-10 01:47N 50°36' W 126°43'415.1
2018-Aug-10 01:30N 50°38' W 126°48'815.9
2018-Aug-10 01:00N 50°42' W 126°59'816.3
2018-Aug-10 00:30N 50°46' W 127°10'816.6
2018-Aug-10 00:00N 50°49' W 127°23'816.1
2018-Aug-09 23:30N 50°52' W 127°34'815.8
2018-Aug-09 23:00N 50°57' W 127°44'713.8
2018-Aug-09 22:30N 51°01' W 127°53'715.0
2018-Aug-09 22:00N 51°05' W 128°03'815.0
2018-Aug-09 21:30N 51°09' W 128°13'815.7
2018-Aug-09 21:00N 51°14' W 128°23'816.1
2018-Aug-09 20:31N 51°19' W 128°33'815.4
2018-Aug-09 20:00N 51°24' W 128°43'815.6
2018-Aug-09 19:30N 51°28' W 128°53'815.5
2018-Aug-09 19:00N 51°33' W 129°03'815.9
2018-Aug-09 18:31N 51°37' W 129°13'816.3
2018-Aug-09 18:00N 51°42' W 129°24'815.9
2018-Aug-09 17:31N 51°47' W 129°34'816.0
2018-Aug-09 17:01N 51°52' W 129°45'10716.7
2018-Aug-09 10:39N 53°27' W 131°04'317.8
2018-Aug-09 10:29N 53°29' W 131°05'918.1
2018-Aug-09 10:00N 53°38' W 131°08'918.0
2018-Aug-09 09:30N 53°47' W 131°11'917.3
2018-Aug-09 09:00N 53°55' W 131°13'198.5
2018-Aug-09 09:00N 53°54' W 131°12'1019.9 140 / 281012.310.8 14.0 16.0
2018-Aug-09 08:30N 54°04' W 131°10'817.1
2018-Aug-09 08:01N 54°11' W 131°04'816.4
2018-Aug-09 07:31N 54°19' W 131°07'917.4
2018-Aug-09 07:01N 54°27' W 131°16'262 6.4
2018-Aug-07 14:06N 58°09' W 135°26'35 1.2
2018-Aug-06 10:00N 58°42' W 135°06'   180 / 121016.310.8 17.0 14.0
Track history (hours):
 
Tides and Currents Weather Stations Pressure Air Temp Water Temp Dewpoint Dewpoint Depression Visibility Wind Speed Wind Dir Waves Ship Positions

Radiance Of The Seas

Operator: Royal Caribbean Cruises Ltd

Last reported at 2018-Aug-16 09:00 UTC. Time now 2018-Aug-16 20:19 UTC.
Position N 58°12' W 137°36'.

Type: Passenger vessel. MMSI: 311319000.

Wind from 270 at 8 knots

Barometer 1021.0 mb
Air temperature 12.0 ° C
Visibility: greater than 5.4 NM
Water temperature 13.0 ° C

Date/timePositionNaut miles runAvg speedWind from/ knotsBaromVisibWave heightAir tempDewpointWater temp
2018-Aug-16 09:00N 58°12' W 137°36'4418.4 270 / 81021.0 5.4 12.0 13.0
2018-Aug-16 06:35N 58°19' W 136°13'221.6
2018-Aug-16 06:29N 58°19' W 136°09'1020.1
2018-Aug-16 06:00N 58°19' W 135°51'1120.9
2018-Aug-16 05:30N 58°15' W 135°32'35 1.9
2018-Aug-15 11:00N 58°48' W 135°06'42 3.0 180 / 101019.010.8 12.0 14.0
2018-Aug-14 21:00N 58°12' W 134°24'14 1.3 320 / 21015.010.8 14.5 11.4
2018-Aug-14 10:00N 58°18' W 134°48'17 2.5 150 / 201013.0 2.2 12.0 14.0
2018-Aug-14 03:00N 58°06' W 135°12'80 5.0 120 / 241014.0 5.4 13.0 12.0
2018-Aug-13 11:00N 56°48' W 134°36'161 6.6 180 / 151013.310.8 11.0 11.0
2018-Aug-12 10:35N 54°44' W 131°35'315.3
2018-Aug-12 10:22N 54°41' W 131°32'513.7
2018-Aug-12 10:00N 54°36' W 131°30'21067.1 320 / 201019.327.0 15.0 14.0
2018-Aug-12 09:59N 54°36' W 131°26'917.8
2018-Aug-12 09:30N 54°29' W 131°18'817.3
2018-Aug-12 09:00N 54°21' W 131°09'816.1
2018-Aug-12 08:30N 54°14' W 131°05'917.6
2018-Aug-12 08:00N 54°05' W 131°08'918.0
2018-Aug-12 07:30N 53°57' W 131°12'917.3
2018-Aug-12 07:00N 53°48' W 131°11'917.4
2018-Aug-12 06:30N 53°40' W 131°09'917.4
2018-Aug-12 06:00N 53°31' W 131°06'1117.5
2018-Aug-12 05:23N 53°21' W 131°00'717.6
2018-Aug-12 05:00N 53°15' W 130°56'9917.7
2018-Aug-11 23:24N 51°48' W 129°36'717.8
2018-Aug-11 23:00N 51°44' W 129°27'918.0
2018-Aug-11 22:30N 51°38' W 129°15'918.0
2018-Aug-11 22:00N 51°33' W 129°04'917.2
2018-Aug-11 21:30N 51°28' W 128°52'917.2
2018-Aug-11 21:00N 51°23' W 128°41'918.1
2018-Aug-11 20:30N 51°17' W 128°30'917.7
2018-Aug-11 20:00N 51°12' W 128°19'917.7
2018-Aug-11 19:30N 51°07' W 128°07'917.7
2018-Aug-11 19:00N 51°03' W 127°54'814.1
2018-Aug-11 18:27N 50°58' W 127°45'817.1
2018-Aug-11 18:00N 50°53' W 127°36'918.1
2018-Aug-11 17:30N 50°48' W 127°24'1018.6
2018-Aug-11 17:00N 50°41' W 127°14'817.0
2018-Aug-11 16:30N 50°37' W 127°03'713.0
2018-Aug-11 16:00N 50°34' W 126°53'5718.1
2018-Aug-11 12:51N 50°20' W 125°26'714.1
2018-Aug-11 12:22N 50°14' W 125°23'513.8
2018-Aug-11 12:00N 50°09' W 125°21'612.4
2018-Aug-11 11:30N 50°04' W 125°15'612.7
2018-Aug-11 11:00N 49°59' W 125°11'510.3
2018-Aug-11 10:30N 49°55' W 125°05'4 8.4
2018-Aug-11 10:00N 49°52' W 125°00'5 9.9
2018-Aug-11 09:30N 49°48' W 124°55'510.7
2018-Aug-11 09:00N 49°45' W 124°49'611.0
2018-Aug-11 08:29N 49°41' W 124°43'610.9
2018-Aug-11 07:58N 49°36' W 124°37'511.1
2018-Aug-11 07:30N 49°32' W 124°32'510.9
2018-Aug-11 07:00N 49°28' W 124°27'510.7
2018-Aug-11 06:30N 49°25' W 124°20'510.8
2018-Aug-11 06:00N 49°23' W 124°12'610.9
2018-Aug-11 05:30N 49°22' W 124°04'510.4
2018-Aug-11 05:00N 49°21' W 123°56'510.6
2018-Aug-11 04:30N 49°21' W 123°48'510.7
2018-Aug-11 04:00N 49°20' W 123°40'510.6
2018-Aug-11 03:30N 49°19' W 123°32'510.9
2018-Aug-11 03:00N 49°19' W 123°24'510.3
2018-Aug-11 02:30N 49°19' W 123°16'510.5
2018-Aug-11 02:00N 49°19' W 123°08'2 3.2
2018-Aug-11 01:30N 49°17' W 123°06'0 0.0
2018-Aug-11 01:00N 49°17' W 123°06'0 0.0
2018-Aug-11 00:30N 49°17' W 123°06'0 0.0
2018-Aug-11 00:00N 49°17' W 123°06'0 0.0
2018-Aug-10 23:30N 49°17' W 123°06'0 0.0
2018-Aug-10 23:00N 49°17' W 123°06'0 0.0
2018-Aug-10 22:30N 49°17' W 123°06'0 0.0
2018-Aug-10 22:00N 49°17' W 123°06'0 0.0
2018-Aug-10 21:30N 49°17' W 123°06'0 0.0
2018-Aug-10 21:00N 49°17' W 123°06'0 0.0
2018-Aug-10 20:30N 49°17' W 123°06'0 0.0
2018-Aug-10 20:00N 49°17' W 123°06'0 0.0
2018-Aug-10 19:30N 49°17' W 123°06'0 0.0
2018-Aug-10 19:00N 49°17' W 123°06'0 0.0
2018-Aug-10 18:30N 49°17' W 123°06'0 0.0
2018-Aug-10 18:00N 49°17' W 123°06'0 0.0
2018-Aug-10 17:30N 49°17' W 123°06'0 0.0
2018-Aug-10 17:00N 49°17' W 123°06'0 0.0
2018-Aug-10 16:30N 49°17' W 123°06'0 0.0
2018-Aug-10 16:00N 49°17' W 123°06'0 0.0
2018-Aug-10 15:30N 49°17' W 123°06'0 0.0
2018-Aug-10 15:00N 49°17' W 123°06'0 0.0
2018-Aug-10 14:30N 49°17' W 123°06'0 0.0
2018-Aug-10 14:00N 49°17' W 123°06'1 2.0
2018-Aug-10 13:30N 49°18' W 123°07'5 9.7
2018-Aug-10 13:01N 49°19' W 123°14'815.2
2018-Aug-10 12:31N 49°19' W 123°26'714.8
2018-Aug-10 12:00N 49°19' W 123°38'715.1
2018-Aug-10 11:31N 49°20' W 123°49'814.9
2018-Aug-10 11:00N 49°22' W 124°00'815.2
2018-Aug-10 10:30N 49°24' W 124°12'815.0
2018-Aug-10 09:59N 49°26' W 124°23'815.4
2018-Aug-10 09:30N 49°31' W 124°32'715.3
2018-Aug-10 09:00N 49°37' W 124°39'815.5
2018-Aug-10 08:30N 49°42' W 124°47'815.8
2018-Aug-10 08:00N 49°48' W 124°55'815.6
2018-Aug-10 07:30N 49°54' W 125°04'815.2
2018-Aug-10 07:00N 49°59' W 125°12'714.2
2018-Aug-10 06:30N 50°06' W 125°17'612.2
2018-Aug-10 06:00N 50°11' W 125°22'5713.6
2018-Aug-10 01:47N 50°36' W 126°43'415.1
2018-Aug-10 01:30N 50°38' W 126°48'815.9
2018-Aug-10 01:00N 50°42' W 126°59'816.3
2018-Aug-10 00:30N 50°46' W 127°10'816.6
2018-Aug-10 00:00N 50°49' W 127°23'816.1
2018-Aug-09 23:30N 50°52' W 127°34'815.8
2018-Aug-09 23:00N 50°57' W 127°44'713.8
2018-Aug-09 22:30N 51°01' W 127°53'715.0
2018-Aug-09 22:00N 51°05' W 128°03'815.0
2018-Aug-09 21:30N 51°09' W 128°13'815.7
2018-Aug-09 21:00N 51°14' W 128°23'816.1
2018-Aug-09 20:31N 51°19' W 128°33'815.4
2018-Aug-09 20:00N 51°24' W 128°43'815.6
2018-Aug-09 19:30N 51°28' W 128°53'815.5
2018-Aug-09 19:00N 51°33' W 129°03'815.9
2018-Aug-09 18:31N 51°37' W 129°13'816.3
2018-Aug-09 18:00N 51°42' W 129°24'815.9
2018-Aug-09 17:31N 51°47' W 129°34'816.0
2018-Aug-09 17:01N 51°52' W 129°45'10716.7
2018-Aug-09 10:39N 53°27' W 131°04'317.8
2018-Aug-09 10:29N 53°29' W 131°05'918.1
2018-Aug-09 10:00N 53°38' W 131°08'918.0
2018-Aug-09 09:30N 53°47' W 131°11'917.3
2018-Aug-09 09:00N 53°55' W 131°13'198.5
2018-Aug-09 09:00N 53°54' W 131°12'1019.9 140 / 281012.310.8 14.0 16.0
2018-Aug-09 08:30N 54°04' W 131°10'817.1
2018-Aug-09 08:01N 54°11' W 131°04'816.4
2018-Aug-09 07:31N 54°19' W 131°07'917.4
2018-Aug-09 07:01N 54°27' W 131°16'262 6.4
2018-Aug-07 14:06N 58°09' W 135°26'35 1.2
2018-Aug-06 10:00N 58°42' W 135°06'   180 / 121016.310.8 17.0 14.0

Dump ship's entire track history